Summary for RAINWISE1

Rainwise Factory, Bar Harbor, ME 04609
Join the PWSweather.com Network
View data in metric units
Latest Conditions
Updated 5:10:00 AM EDT Tuesday, Sep 2, 2014
Data Currently Today's Max Today's Min Today's Average
Temperature 58.9°F14.9°C 61.6°F16.4°C 58.9°F14.9°C 59.9°F15.5°C
Dew Point 58.9°F14.9°C 61.6°F16.4°C 58.9°F14.9°C 59.9°F15.5°C
Winds 0.8 mph ESE1.3 kmh ESE 3.1 mph SSE5.0 kmh SSE CalmCalm 0.7 mph1.1 kmh
Wind Gusts 2.1 mph3.4 kmh 4.4 mph7.1 kmh -- 2.1 mph3.4 kmh
Humidity 100% 100% 100% 100%
Pressure 30.01 in1016.3 mb 30.04 in1017.3 mb 30.01 in1016.3 mb 30.02 in1016.6 mb
Precipitation 0.00 in0.0 mm - - 0.00 in0.0 mm
Trends
 
Station Profile
Rainwise FactoryBar Harbor, ME 04609

Lat: 44.39, Lon: -68.208
Elevation: 29
Station Type: Rainwise MK-III

Detailed Summary for Tue, Sep 02, 2014
Hour (EDT) Temperature Dew Point Humidity Winds Wind Gusts Pressure Precip Precip Rate Daily Precip Total
05:10 AM 58.9°F14.9°C 58.9°F14.9°C 100% 0.8 mph ESE1.3 kmh ESE 2.1 mph3.4 kmh 30.01 in1016.3 mb 0.00 in0.0 mm 0.00 in/hr0.0 mm/hr 0.00 in0.0 mm
05:05 AM 58.9°F14.9°C 58.9°F14.9°C 100% 1.2 mph ESE1.9 kmh ESE 2.6 mph4.2 kmh 30.01 in1016.3 mb 0.00 in0.0 mm 0.00 in/hr0.0 mm/hr 0.00 in0.0 mm
05:00 AM 59.0°F15.0°C 59.0°F15.0°C 100% 0.6 mph SE1.0 kmh SE 2.2 mph3.5 kmh 30.01 in1016.3 mb 0.00 in0.0 mm 0.00 in/hr0.0 mm/hr 0.00 in0.0 mm
04:55 AM 59.0°F15.0°C 59.0°F15.0°C 100% 0.5 mph SSE0.8 kmh SSE 2.1 mph3.4 kmh 30.01 in1016.3 mb 0.00 in0.0 mm 0.00 in/hr0.0 mm/hr 0.00 in0.0 mm
04:50 AM 59.0°F15.0°C 59.0°F15.0°C 100% 0.3 mph SSE0.5 kmh SSE 1.6 mph2.6 kmh 30.01 in1016.3 mb 0.00 in0.0 mm 0.00 in/hr0.0 mm/hr 0.00 in0.0 mm
04:45 AM 59.0°F15.0°C 59.0°F15.0°C 100% 0.8 mph SE1.3 kmh SE 2.2 mph3.5 kmh 30.01 in1016.3 mb 0.00 in0.0 mm 0.00 in/hr0.0 mm/hr 0.00 in0.0 mm
04:40 AM 59.0°F15.0°C 59.0°F15.0°C 100% 1.4 mph ESE2.3 kmh ESE 2.7 mph4.3 kmh 30.01 in1016.3 mb 0.00 in0.0 mm 0.00 in/hr0.0 mm/hr 0.00 in0.0 mm
04:35 AM 59.0°F15.0°C 59.0°F15.0°C 100% 1.6 mph SE2.6 kmh SE 3.7 mph6.0 kmh 30.01 in1016.3 mb 0.00 in0.0 mm 0.00 in/hr0.0 mm/hr 0.00 in0.0 mm
04:30 AM 59.1°F15.1°C 59.1°F15.1°C 100% 1.8 mph ESE2.9 kmh ESE 3.5 mph5.6 kmh 30.01 in1016.3 mb 0.00 in0.0 mm 0.00 in/hr0.0 mm/hr 0.00 in0.0 mm
04:25 AM 59.2°F15.1°C 59.2°F15.1°C 100% 1.5 mph ESE2.4 kmh ESE 4.0 mph6.4 kmh 30.01 in1016.3 mb 0.00 in0.0 mm 0.00 in/hr0.0 mm/hr 0.00 in0.0 mm
04:20 AM 59.2°F15.1°C 59.2°F15.1°C 100% 0.4 mph ESE0.6 kmh ESE 1.8 mph2.9 kmh 30.01 in1016.3 mb 0.00 in0.0 mm 0.00 in/hr0.0 mm/hr 0.00 in0.0 mm
04:15 AM 59.2°F15.1°C 59.2°F15.1°C 100% 0.2 mph ESE0.3 kmh ESE 1.6 mph2.6 kmh 30.02 in1016.6 mb 0.00 in0.0 mm 0.00 in/hr0.0 mm/hr 0.00 in0.0 mm
04:10 AM 59.2°F15.1°C 59.2°F15.1°C 100% 0.1 mph SE0.2 kmh SE 2.1 mph3.4 kmh 30.02 in1016.6 mb 0.00 in0.0 mm 0.00 in/hr0.0 mm/hr 0.00 in0.0 mm
04:05 AM 59.4°F15.2°C 59.4°F15.2°C 100% 1.3 mph ESE2.1 kmh ESE 4.2 mph6.8 kmh 30.02 in1016.6 mb 0.00 in0.0 mm 0.00 in/hr0.0 mm/hr 0.00 in0.0 mm
04:00 AM 59.4°F15.2°C 59.4°F15.2°C 100% 1.1 mph SE1.8 kmh SE 2.2 mph3.5 kmh 30.02 in1016.6 mb 0.00 in0.0 mm 0.00 in/hr0.0 mm/hr 0.00 in0.0 mm
03:55 AM 59.5°F15.3°C 59.5°F15.3°C 100% 0.9 mph ESE1.4 kmh ESE 1.8 mph2.9 kmh 30.02 in1016.6 mb 0.00 in0.0 mm 0.00 in/hr0.0 mm/hr 0.00 in0.0 mm
03:50 AM 59.5°F15.3°C 59.5°F15.3°C 100% 1.3 mph ESE2.1 kmh ESE 3.0 mph4.8 kmh 30.02 in1016.6 mb 0.00 in0.0 mm 0.00 in/hr0.0 mm/hr 0.00 in0.0 mm
03:45 AM 59.6°F15.3°C 59.6°F15.3°C 100% 1.4 mph ESE2.3 kmh ESE 3.7 mph6.0 kmh 30.03 in1016.9 mb 0.00 in0.0 mm 0.00 in/hr0.0 mm/hr 0.00 in0.0 mm
03:40 AM 59.6°F15.3°C 59.6°F15.3°C 100% 0.2 mph ESE0.3 kmh ESE 1.3 mph2.1 kmh 30.02 in1016.6 mb 0.00 in0.0 mm 0.00 in/hr0.0 mm/hr 0.00 in0.0 mm
03:35 AM 59.6°F15.3°C 59.6°F15.3°C 100% 1.1 mph ESE1.8 kmh ESE 3.0 mph4.8 kmh 30.02 in1016.6 mb 0.00 in0.0 mm 0.00 in/hr0.0 mm/hr 0.00 in0.0 mm
03:30 AM 59.5°F15.3°C 59.5°F15.3°C 100% 0.3 mph ESE0.5 kmh ESE 2.6 mph4.2 kmh 30.03 in1016.9 mb 0.00 in0.0 mm 0.00 in/hr0.0 mm/hr 0.00 in0.0 mm
03:25 AM 59.5°F15.3°C 59.5°F15.3°C 100% Calm Calm -- 30.03 in1016.9 mb 0.00 in0.0 mm 0.00 in/hr0.0 mm/hr 0.00 in0.0 mm
03:20 AM 59.5°F15.3°C 59.5°F15.3°C 100% 0.5 mph ESE0.8 kmh ESE 1.8 mph2.9 kmh 30.03 in1016.9 mb 0.00 in0.0 mm 0.00 in/hr0.0 mm/hr 0.00 in0.0 mm
03:15 AM 59.5°F15.3°C 59.5°F15.3°C 100% 0.5 mph SE0.8 kmh SE 2.6 mph4.2 kmh 30.03 in1016.9 mb 0.00 in0.0 mm 0.00 in/hr0.0 mm/hr 0.00 in0.0 mm
03:10 AM 59.6°F15.3°C 59.6°F15.3°C 100% 1.0 mph SE1.6 kmh SE 2.6 mph4.2 kmh 30.03 in1016.9 mb 0.00 in0.0 mm 0.00 in/hr0.0 mm/hr 0.00 in0.0 mm
03:05 AM 59.6°F15.3°C 59.6°F15.3°C 100% 0.3 mph ESE0.5 kmh ESE 2.1 mph3.4 kmh 30.02 in1016.6 mb 0.00 in0.0 mm 0.00 in/hr0.0 mm/hr 0.00 in0.0 mm
03:00 AM 59.6°F15.3°C 59.6°F15.3°C 100% 0.8 mph SSE1.3 kmh SSE 2.2 mph3.5 kmh 30.03 in1016.9 mb 0.00 in0.0 mm 0.00 in/hr0.0 mm/hr 0.00 in0.0 mm
02:55 AM 59.7°F15.4°C 59.7°F15.4°C 100% 0.9 mph SSE1.4 kmh SSE 1.8 mph2.9 kmh 30.03 in1016.9 mb 0.00 in0.0 mm 0.00 in/hr0.0 mm/hr 0.00 in0.0 mm
02:50 AM 59.7°F15.4°C 59.7°F15.4°C 100% 0.1 mph SSE0.2 kmh SSE 1.1 mph1.8 kmh 30.03 in1016.9 mb 0.00 in0.0 mm 0.00 in/hr0.0 mm/hr 0.00 in0.0 mm
02:45 AM 59.7°F15.4°C 59.7°F15.4°C 100% Calm Calm 1.1 mph1.8 kmh 30.03 in1016.9 mb 0.00 in0.0 mm 0.00 in/hr0.0 mm/hr 0.00 in0.0 mm
02:40 AM 59.7°F15.4°C 59.7°F15.4°C 100% 0.1 mph SSW0.2 kmh SSW 1.1 mph1.8 kmh 30.02 in1016.6 mb 0.00 in0.0 mm 0.00 in/hr0.0 mm/hr 0.00 in0.0 mm
02:35 AM 59.7°F15.4°C 59.7°F15.4°C 100% Calm Calm -- 30.02 in1016.6 mb 0.00 in0.0 mm 0.00 in/hr0.0 mm/hr 0.00 in0.0 mm
02:30 AM 59.7°F15.4°C 59.7°F15.4°C 100% Calm Calm -- 30.03 in1016.9 mb 0.00 in0.0 mm 0.00 in/hr0.0 mm/hr 0.00 in0.0 mm
02:25 AM 59.7°F15.4°C 59.7°F15.4°C 100% 1.6 mph SSW2.6 kmh SSW 2.2 mph3.5 kmh 30.03 in1016.9 mb 0.00 in0.0 mm 0.00 in/hr0.0 mm/hr 0.00 in0.0 mm
02:20 AM 59.7°F15.4°C 59.7°F15.4°C 100% 2.7 mph SSW4.3 kmh SSW 3.5 mph5.6 kmh 30.03 in1016.9 mb 0.00 in0.0 mm 0.00 in/hr0.0 mm/hr 0.00 in0.0 mm
02:15 AM 59.7°F15.4°C 59.7°F15.4°C 100% 1.2 mph SSW1.9 kmh SSW 3.2 mph5.1 kmh 30.03 in1016.9 mb 0.00 in0.0 mm 0.00 in/hr0.0 mm/hr 0.00 in0.0 mm
02:10 AM 59.7°F15.4°C 59.7°F15.4°C 100% 1.0 mph SSE1.6 kmh SSE 2.2 mph3.5 kmh 30.03 in1016.9 mb 0.00 in0.0 mm 0.00 in/hr0.0 mm/hr 0.00 in0.0 mm
02:05 AM 59.8°F15.4°C 59.8°F15.4°C 100% 2.2 mph SSE3.5 kmh SSE 3.5 mph5.6 kmh 30.03 in1016.9 mb 0.00 in0.0 mm 0.00 in/hr0.0 mm/hr 0.00 in0.0 mm
02:00 AM 59.9°F15.5°C 59.9°F15.5°C 100% 3.1 mph SSE5.0 kmh SSE 4.4 mph7.1 kmh 30.03 in1016.9 mb 0.00 in0.0 mm 0.00 in/hr0.0 mm/hr 0.00 in0.0 mm
01:55 AM 59.9°F15.5°C 59.9°F15.5°C 100% 1.2 mph ESE1.9 kmh ESE 2.6 mph4.2 kmh 30.03 in1016.9 mb 0.00 in0.0 mm 0.00 in/hr0.0 mm/hr 0.00 in0.0 mm
01:50 AM 59.9°F15.5°C 59.9°F15.5°C 100% 0.7 mph SE1.1 kmh SE 2.2 mph3.5 kmh 30.03 in1016.9 mb 0.00 in0.0 mm 0.00 in/hr0.0 mm/hr 0.00 in0.0 mm
01:45 AM 59.9°F15.5°C 59.9°F15.5°C 100% 0.2 mph ESE0.3 kmh ESE 2.1 mph3.4 kmh 30.03 in1016.9 mb 0.00 in0.0 mm 0.00 in/hr0.0 mm/hr 0.00 in0.0 mm
01:40 AM 59.9°F15.5°C 59.9°F15.5°C 100% 0.4 mph ESE0.6 kmh ESE 2.6 mph4.2 kmh 30.03 in1016.9 mb 0.00 in0.0 mm 0.00 in/hr0.0 mm/hr 0.00 in0.0 mm
01:35 AM 59.9°F15.5°C 59.9°F15.5°C 100% Calm Calm 1.1 mph1.8 kmh 30.03 in1016.9 mb 0.00 in0.0 mm 0.00 in/hr0.0 mm/hr 0.00 in0.0 mm
01:30 AM 59.9°F15.5°C 59.9°F15.5°C 100% 1.0 mph ESE1.6 kmh ESE 3.0 mph4.8 kmh 30.03 in1016.9 mb 0.00 in0.0 mm 0.00 in/hr0.0 mm/hr 0.00 in0.0 mm
01:25 AM 59.9°F15.5°C 59.9°F15.5°C 100% 0.4 mph ENE0.6 kmh ENE 2.2 mph3.5 kmh 30.03 in1016.9 mb 0.00 in0.0 mm 0.00 in/hr0.0 mm/hr 0.00 in0.0 mm
01:20 AM 60.0°F15.6°C 60.0°F15.6°C 100% 0.9 mph ESE1.4 kmh ESE 4.0 mph6.4 kmh 30.03 in1016.9 mb 0.00 in0.0 mm 0.00 in/hr0.0 mm/hr 0.00 in0.0 mm
01:15 AM 60.1°F15.6°C 60.1°F15.6°C 100% 0.1 mph ESE0.2 kmh ESE 2.1 mph3.4 kmh 30.03 in1016.9 mb 0.00 in0.0 mm 0.00 in/hr0.0 mm/hr 0.00 in0.0 mm
01:10 AM 60.2°F15.7°C 60.2°F15.7°C 100% 0.2 mph SSE0.3 kmh SSE 1.6 mph2.6 kmh 30.03 in1016.9 mb 0.00 in0.0 mm 0.00 in/hr0.0 mm/hr 0.00 in0.0 mm
01:05 AM 60.3°F15.7°C 60.3°F15.7°C 100% 1.5 mph SE2.4 kmh SE 3.0 mph4.8 kmh 30.03 in1016.9 mb 0.00 in0.0 mm 0.00 in/hr0.0 mm/hr 0.00 in0.0 mm
01:00 AM 60.5°F15.8°C 60.5°F15.8°C 100% 1.3 mph SE2.1 kmh SE 3.7 mph6.0 kmh 30.03 in1016.9 mb 0.00 in0.0 mm 0.00 in/hr0.0 mm/hr 0.00 in0.0 mm
12:55 AM 60.6°F15.9°C 60.6°F15.9°C 100% 1.3 mph ESE2.1 kmh ESE 3.0 mph4.8 kmh 30.03 in1016.9 mb 0.00 in0.0 mm 0.00 in/hr0.0 mm/hr 0.00 in0.0 mm
12:50 AM 60.7°F15.9°C 60.7°F15.9°C 100% 1.1 mph SSE1.8 kmh SSE 3.2 mph5.1 kmh 30.04 in1017.3 mb 0.00 in0.0 mm 0.00 in/hr0.0 mm/hr 0.00 in0.0 mm
12:45 AM 60.8°F16.0°C 60.8°F16.0°C 100% 0.3 mph ENE0.5 kmh ENE 1.8 mph2.9 kmh 30.04 in1017.3 mb 0.00 in0.0 mm 0.00 in/hr0.0 mm/hr 0.00 in0.0 mm
12:40 AM 61.1°F16.2°C 61.1°F16.2°C 100% 0.6 mph ENE1.0 kmh ENE 1.8 mph2.9 kmh 30.03 in1016.9 mb 0.00 in0.0 mm 0.00 in/hr0.0 mm/hr 0.00 in0.0 mm
12:35 AM 61.0°F16.1°C 61.0°F16.1°C 100% 0.1 mph ESE0.2 kmh ESE 1.8 mph2.9 kmh 30.03 in1016.9 mb 0.00 in0.0 mm 0.00 in/hr0.0 mm/hr 0.00 in0.0 mm
12:30 AM 61.0°F16.1°C 61.0°F16.1°C 100% Calm Calm 1.1 mph1.8 kmh 30.03 in1016.9 mb 0.00 in0.0 mm 0.00 in/hr0.0 mm/hr 0.00 in0.0 mm
12:25 AM 61.1°F16.2°C 61.1°F16.2°C 100% Calm Calm -- 30.03 in1016.9 mb 0.00 in0.0 mm 0.00 in/hr0.0 mm/hr 0.00 in0.0 mm
12:20 AM 61.2°F16.2°C 61.2°F16.2°C 100% Calm Calm -- 30.03 in1016.9 mb 0.00 in0.0 mm 0.00 in/hr0.0 mm/hr 0.00 in0.0 mm
12:15 AM 61.4°F16.3°C 61.4°F16.3°C 100% 0.2 mph SSE0.3 kmh SSE 1.3 mph2.1 kmh 30.03 in1016.9 mb 0.00 in0.0 mm 0.00 in/hr0.0 mm/hr 0.00 in0.0 mm
12:10 AM 61.6°F16.4°C 61.6°F16.4°C 100% Calm Calm -- 30.02 in1016.6 mb 0.00 in0.0 mm 0.00 in/hr0.0 mm/hr 0.00 in0.0 mm
12:05 AM 61.5°F16.4°C 61.5°F16.4°C 100% Calm Calm -- 30.02 in1016.6 mb 0.00 in0.0 mm 0.00 in/hr0.0 mm/hr 0.00 in0.0 mm
12:00 AM 61.6°F16.4°C 61.6°F16.4°C 100% Calm Calm -- 30.02 in1016.6 mb 0.00 in0.0 mm 0.00 in/hr0.0 mm/hr 0.05 in1.3 mm
WeatherForYou.com, LLC is not responsible for any damages or problems caused by this service. Current weather conditions are obtained from the closest station including government and personal stations which may have varying degrees of accuracy. Weather forecasts are derived from the NOAA NDFD and obtained through HAMweather's Aeris Weather API. Like all things, this site belongs to Jesus Christ... He just trusts me to maintain it. If you have any questions or comments email webmaster@weatherforyou.com

Copyright © 2014, WeatherForYou.com LLC. All rights reserved.